Buffalo, NY

9:28 PM EDT on March 27, 2017 (GMT -0400)
Elmwood/Bryant | | Change Station

Elev 656 ft 42.91 °N, 78.88 °W | Updated 6 seconds ago

Fog
Fog
44.2 °F
Feels Like 44 °F
N
1.0
Wind Variable Wind from South

Today
High -- | Low -- °F
--% Chance of Precip.
Yesterday
High -- | Low -- °F
Precip. -- in
Pressure 29.93 in
Visibility 7.0 miles
Clouds Few 600 ft
Scattered Clouds 5000 ft
Scattered Clouds 10000 ft
Mostly Cloudy 28000 ft
Windchill 44 °F
Dew Point 43 °F
Humidity 98%
Rainfall 0.00 in
Snow Depth Not available.
7:05 AM 7:36 PM
Waning Crescent, 0% visible
METAR KBUF 280054Z 22007KT 7SM FEW006 SCT050 SCT100 BKN280 09/07 A2992 RMK AO2 SLP135 T00890072 $
Pressure 29.93 in
Visibility 7.0 miles
Clouds Few 600 ft
Scattered Clouds 5000 ft
Scattered Clouds 10000 ft
Mostly Cloudy 28000 ft
Windchill 44 °F
Dew Point 43 °F
Humidity 98%
Rainfall 0.00 in
Snow Depth Not available.
7:05 AM 7:36 PM
Waning Crescent, 0% visible
METAR KBUF 280054Z 22007KT 7SM FEW006 SCT050 SCT100 BKN280 09/07 A2992 RMK AO2 SLP135 T00890072 $

Get Severe Weather Alerts

Thanks for signing up!

Be on the lookout for a verification email in your inbox.

You'll start receiving the daily forecast at 8 AM.

×

10-Day Weather Forecast

Almanac

Astronomy

Mar. 27, 2017 Rise Set
Actual Time
Civil Twilight
Nautical Twilight
Astronomical Twilight
Moon
Length of Visible Light
Length of Day
Tomorrow will be .
, % of the Moon is Illuminated

Today's Extremes

State Highs State Lows

Community

WunderPhotos

Upload Photos

1,962,540 photos uploaded!

WunderBlog® & News

Nearby

Air Quality

  Air Quality AQ Index Pollutant
Not available.

Snow Depth

Station Depth Elevation

Earthquake Activity

City Distance Mag. Time & Date
Minimum magnitude displayed is 2.5.

Earthquake Activity

City Distance Mag. Time & Date
Minimum magnitude displayed is 2.5.

Coastal Water Temperatures

Place Temperature

Stations

Nearby Weather Stations

Station Location Temp. Windchill Dew Point Humidity Wind Precip. Elev Updated Type
                   

Watches & Warnings

There are currently no watches in effect.